CMN weather

Mohammed V International Airport
Casablanca, Casablanca Province, Morocco

Public forecast

Using degrees Celsius for public forecast. Weather courtesy of forecast.io.

Current aviation weather report (METAR) for Mohammed V International Airport

Retrieved 2019/10/21 19:30 UTC (0 seconds ago):

GMMN 211930Z 32006KT CAVOK 15/09 Q1017 NOSIG

Aviation forecast (TAF) for Mohammed V International Airport

Retrieved 2019/10/21 18:18 UTC (48 minutes ago):

TAF GMMN 211700Z 2118/2224 34010KT 9999 SCT020 SCT100 BECMG 2119/2122 20006KT BECMG 2207/2209 26012KT TEMPO 2209/2213 6000 RA BKN016 BKN100